Сообщение об ошибке

  • Warning: ini_set(): Headers already sent. You cannot change the session module's ini settings at this time in drupal_environment_initialize() (line 699 of /home/a/auditpro/2.auditpro.beget.tech/public_html/st/includes/bootstrap.inc).
  • Warning: ini_set(): Headers already sent. You cannot change the session module's ini settings at this time in drupal_environment_initialize() (line 700 of /home/a/auditpro/2.auditpro.beget.tech/public_html/st/includes/bootstrap.inc).
  • Warning: ini_set(): Headers already sent. You cannot change the session module's ini settings at this time in drupal_environment_initialize() (line 701 of /home/a/auditpro/2.auditpro.beget.tech/public_html/st/includes/bootstrap.inc).
  • Warning: ini_set(): Headers already sent. You cannot change the session module's ini settings at this time in drupal_environment_initialize() (line 704 of /home/a/auditpro/2.auditpro.beget.tech/public_html/st/includes/bootstrap.inc).
  • Warning: ini_set(): Headers already sent. You cannot change the session module's ini settings at this time in drupal_environment_initialize() (line 706 of /home/a/auditpro/2.auditpro.beget.tech/public_html/st/includes/bootstrap.inc).
  • Warning: ini_set(): Headers already sent. You cannot change the session module's ini settings at this time in include_once() (line 290 of /home/a/auditpro/2.auditpro.beget.tech/public_html/st/sites/default/settings.php).
  • Warning: ini_set(): Headers already sent. You cannot change the session module's ini settings at this time in include_once() (line 291 of /home/a/auditpro/2.auditpro.beget.tech/public_html/st/sites/default/settings.php).
  • Warning: ini_set(): Headers already sent. You cannot change the session module's ini settings at this time in include_once() (line 299 of /home/a/auditpro/2.auditpro.beget.tech/public_html/st/sites/default/settings.php).
  • Warning: ini_set(): Headers already sent. You cannot change the session module's ini settings at this time in include_once() (line 306 of /home/a/auditpro/2.auditpro.beget.tech/public_html/st/sites/default/settings.php).
  • Warning: ini_set(): Headers already sent. You cannot change the session module's ini settings at this time in drupal_settings_initialize() (line 826 of /home/a/auditpro/2.auditpro.beget.tech/public_html/st/includes/bootstrap.inc).
  • Warning: ini_set(): Headers already sent. You cannot change the session module's ini settings at this time in drupal_settings_initialize() (line 835 of /home/a/auditpro/2.auditpro.beget.tech/public_html/st/includes/bootstrap.inc).
  • Warning: session_name(): Cannot change session name when headers already sent in drupal_settings_initialize() (line 838 of /home/a/auditpro/2.auditpro.beget.tech/public_html/st/includes/bootstrap.inc).

Спасское

СКИДКИ НА СМАРТФОНЫ!

Карта отелей и гостиниц, располагающихся рядом с аэропортом Спасское :

Спасское Курская область 51° 28' 4.6812" N, 35° 53' 55.2588" E
Код аэродрома ИКАО
ZB9O
Код аэродрома RU
ЗБ9О
Координаты
N51.46797° E035.89868°
Превышение над уровнем моря
249
Основная полоса
10/28
Курс магнитный
096/276
Длина основной ВПП
400
Ширина основной ВПП
18
Покрытие основной ВПП
Твёрдое (асфальт)
Освещение ВПП
Нет
Тип: 
Аэродром
Класс аэродрома: 
Принадлежность: 
ГА
Статус: 
Недействующий
Сайт: 
E-mail аэродрома: 
Страна: 
Россия
Регион: 
Курская область
Город: 
Дополнительная информация: 
Площадка АХР.

Скидки на навигаторы!

Найти трансфер

С помощью этой формы Вы можете найти трансфер из аэропорта Спасское в город, аэропорт или вокзал:

Погода в аэропортах:

Авиационная погода в Каяани

Регион: 
Погода METAR: 
EFKI 301920Z AUTO 36005KT 3600 -SN SCT002 OVC015 M00/M01 Q0969
Время наблюдения
2023-01-30T19:20:00Z
Температура C
0.0
Точка росы
-1.0
Направление ветра
360
Скорость ветра (узлы)
5
Метео видимость
2.24
Облачность
SCT
OVC
Нижняя граница облачности (футы)
200
1500
Явления погоды
-SN
Условия полета
IFR
SCT – разбросанная отдельная облачность; OVC – сплошная облачность;
-SN – слабый снег;

Авиационная погода в Бресте

Регион: 
Погода METAR: 
UMBB 301015Z 22008G11MPS 2100 -SHSNRA OVC013CB 00/M03 Q1001 NOSIG
Время наблюдения
2023-01-30T10:15:00Z
Температура C
0.0
Точка росы
-3.0
Направление ветра
220
Скорость ветра (узлы)
16
Метео видимость
1.3
Облачность
OVC
Нижняя граница облачности (футы)
1300
Явления погоды
-SHSN -SHRA
Условия полета
IFR
Аэропорт подробнее: 
OVC – сплошная облачность;
-SHRA - слабый ливневой дождь; -SHSN - слабый ливневой снег;

Авиационная погода в Москве - Остафьево

Погода METAR: 
UUMO 301930Z 21006MPS 6000 -SN OVC019 M01/M04 Q0996 R25/520148 NOSIG RMK QFE732/0976
Время наблюдения
2023-01-30T19:30:00Z
Температура C
-1.0
Точка росы
-4.0
Направление ветра
210
Скорость ветра (узлы)
12
Метео видимость
3.73
Облачность
OVC
Нижняя граница облачности (футы)
1900
Явления погоды
-SN
Условия полета
MVFR
Аэропорт подробнее: 
OVC – сплошная облачность;
-SN – слабый снег;

Авиационная погода в Витебске

Регион: 
Погода METAR: 
UMII 301021Z 20009G13MPS 4400 -SN BLSN OVC009 M01/M02 Q0995 TEMPO 2000 SN BKN005
Время наблюдения
2023-01-30T10:21:00Z
Температура C
-1.0
Точка росы
-2.0
Направление ветра
200
Скорость ветра (узлы)
17
Метео видимость
2.73
Облачность
OVC
Нижняя граница облачности (футы)
900
Явления погоды
-SN BLSN
Условия полета
IFR
OVC – сплошная облачность;
-SN – слабый снег, BLSN – метель низовая или общая;